Vichy, Missouri
Current Conditions -  °F | °C
As of 2:53 PM on Thursday 27 Nov 2014 (Local Time) from KVIH Reporting Station
Overcast Overcast  
Wind Chill: 28°   Ceiling: 7500
Heat Index: 33°   Visibility: 10mi
Dew Point: 23°   Wind: 6mph
Humidity: 66%   Direction: 260°W
Pressure: 30.41"   Gusts: NA
Location:  38.11°N, 91.76°W
Report Text: KVIH 272053Z AUTO 26005KT 10SM OVC075 01/M05 A3041 RMK AO2 SLP310 T00061050 56017
Loading
Personal Weather Stations






























Interactive Weather Map New forecast layout! Learn more

10-Day Weather Forecast

Advertisements
Track Severe Weather on mobile